Bismarck, North Dakota
Current Conditions -  °F | °C
As of 1:52 AM on Thursday 27 Nov 2014 (Local Time) from KBIS Reporting Station
Broken Clouds Broken Clouds  
Wind Chill: -9°   Ceiling: 2200
Heat Index: -9°   Visibility: 10mi
Dew Point: -14°   Wind: 3mph
Humidity: 79%   Direction: 70°ENE
Pressure: 30.45"   Gusts: NA
Location:  46.81°N, 100.77°W
Report Text: KBIS 270752Z AUTO 07003KT 10SM BKN022 M23/M26 A3045 RMK AO2 SLP359 T12281256
Loading
Personal Weather Stations






























Interactive Weather Map New forecast layout! Learn more

10-Day Weather Forecast

Advertisements
Track Severe Weather on mobile